createdAt,value
2024-05-09T00:00:22.131Z,102133.56
2024-05-09T00:00:48.410Z,102126.53
2024-05-09T00:01:13.746Z,102126.38
2024-05-09T00:01:35.719Z,102137.97
2024-05-09T00:01:57.538Z,102131.66
2024-05-09T00:02:19.374Z,102130.72
2024-05-09T00:02:41.654Z,102134.34
2024-05-09T00:03:06.989Z,102129.84
2024-05-09T00:03:31.608Z,102129.91
2024-05-09T00:03:53.600Z,102124.56
2024-05-09T00:04:59.538Z,102121.91
2024-05-09T00:05:21.552Z,102117.59
2024-05-09T00:05:46.543Z,102123.69
2024-05-09T00:06:09.622Z,102118.56
2024-05-09T00:06:31.519Z,102121.09
2024-05-09T00:06:53.566Z,102125.47
2024-05-09T00:07:15.381Z,102121.91
2024-05-09T00:07:39.808Z,102115.84
2024-05-09T00:08:01.775Z,102132.66
2024-05-09T00:08:24.142Z,102126.44
2024-05-09T00:08:46.408Z,102129.19
2024-05-09T00:10:09.201Z,102122.16
2024-05-09T00:10:37.490Z,102120.44
2024-05-09T00:11:00.875Z,102121.31
2024-05-09T00:11:23.626Z,102122.22
2024-05-09T00:11:45.650Z,102129.47
2024-05-09T00:12:10.264Z,102119.59
2024-05-09T00:12:32.142Z,102124.06
2024-05-09T00:12:53.902Z,102125.88
2024-05-09T00:13:15.772Z,102123.16
2024-05-09T00:13:40.164Z,102123.19
2024-05-09T00:14:04.984Z,102123.16
2024-05-09T00:14:26.931Z,102122.28
2024-05-09T00:14:48.699Z,102124.94
2024-05-09T00:15:10.432Z,102121.38
2024-05-09T00:15:33.361Z,102120.44
2024-05-09T00:15:57.994Z,102123.03
2024-05-09T00:16:19.790Z,102110.81
2024-05-09T00:16:41.517Z,102128.56
2024-05-09T00:17:03.670Z,102113.31
2024-05-09T00:17:25.783Z,102105.63
2024-05-09T00:17:47.912Z,102120.59
2024-05-09T00:18:12.655Z,102120.50
2024-05-09T00:18:34.673Z,102122.28
2024-05-09T00:18:56.634Z,102114.28
2024-05-09T00:19:18.694Z,102120.59
2024-05-09T00:19:40.544Z,102123.25
2024-05-09T00:20:11.109Z,102120.50
2024-05-09T00:20:39.551Z,102118.75
2024-05-09T00:21:04.574Z,102120.63
2024-05-09T00:21:26.398Z,102120.59
2024-05-09T00:21:48.237Z,102117.91
2024-05-09T00:22:10.038Z,102112.59
2024-05-09T00:22:34.566Z,102116.91
2024-05-09T00:22:56.384Z,102123.31
2024-05-09T00:23:18.287Z,102113.38
2024-05-09T00:23:40.220Z,102120.59
2024-05-09T00:24:02.034Z,102121.38
2024-05-09T00:24:23.773Z,102114.28
2024-05-09T00:24:48.124Z,102117.78
2024-05-09T00:25:09.930Z,102110.66
2024-05-09T00:25:31.653Z,102122.28
2024-05-09T00:25:53.430Z,102122.38
2024-05-09T00:26:15.954Z,102124.19
2024-05-09T00:26:40.453Z,102115.34
2024-05-09T00:27:02.225Z,102114.50
2024-05-09T00:27:24.048Z,102118.91
2024-05-09T00:27:45.800Z,102113.47
2024-05-09T00:28:07.558Z,102116.16
2024-05-09T00:28:29.331Z,102120.59
2024-05-09T00:28:56.447Z,102116.16
2024-05-09T00:29:18.308Z,102124.13
2024-05-09T00:29:40.102Z,102121.53
2024-05-09T00:30:02.867Z,102112.81
2024-05-09T00:30:33.323Z,102124.41
2024-05-09T00:30:57.687Z,102124.34
2024-05-09T00:31:22.008Z,102118.09
2024-05-09T00:31:43.793Z,102113.66
2024-05-09T00:32:06.883Z,102116.34
2024-05-09T00:32:28.870Z,102112.81
2024-05-09T00:32:50.864Z,102123.50
2024-05-09T00:33:15.596Z,102112.88
2024-05-09T00:33:37.939Z,102119.16
2024-05-09T00:33:59.953Z,102112.88
2024-05-09T00:34:23.962Z,102112.81
2024-05-09T00:34:46.074Z,102115.56
2024-05-09T00:35:10.496Z,102114.56
2024-05-09T00:35:32.550Z,102110.09
2024-05-09T00:35:54.373Z,102116.34
2024-05-09T00:36:16.135Z,102111.91
2024-05-09T00:36:37.931Z,102109.22
2024-05-09T00:37:02.312Z,102112.88
2024-05-09T00:37:24.087Z,102106.66
2024-05-09T00:37:45.872Z,102102.19
2024-05-09T00:38:08.019Z,102113.78
2024-05-09T00:38:30.115Z,102108.44
2024-05-09T00:38:54.570Z,102117.38
2024-05-09T00:39:16.660Z,102108.44
2024-05-09T00:39:38.403Z,102108.44
2024-05-09T00:40:00.280Z,102106.66
2024-05-09T00:40:30.892Z,102104.84
2024-05-09T00:41:02.807Z,102105.78
2024-05-09T00:41:24.743Z,102103.09
2024-05-09T00:41:46.651Z,102104.09
2024-05-09T00:42:08.445Z,102107.66
2024-05-09T00:42:30.216Z,102103.28
2024-05-09T00:42:54.671Z,102103.22
2024-05-09T00:43:16.445Z,102108.44
2024-05-09T00:43:38.300Z,102104.09
2024-05-09T00:44:02.982Z,102105.78
2024-05-09T00:44:27.680Z,102105.78
2024-05-09T00:44:49.506Z,102112.94
2024-05-09T00:45:11.332Z,102102.19
2024-05-09T00:45:33.837Z,102104.84
2024-05-09T00:45:57.327Z,102104.00
2024-05-09T00:46:21.897Z,102113.88
2024-05-09T00:46:44.285Z,102105.97
2024-05-09T00:47:06.357Z,102115.00
2024-05-09T00:47:28.471Z,102114.06
2024-05-09T00:47:50.780Z,102109.50
2024-05-09T00:48:17.270Z,102105.88
2024-05-09T00:48:44.259Z,102118.44
2024-05-09T00:49:06.601Z,102114.84
2024-05-09T00:49:28.970Z,102116.69
2024-05-09T00:49:51.247Z,102113.19
2024-05-09T00:50:22.664Z,102121.09
2024-05-09T00:50:48.328Z,102110.41
2024-05-09T00:51:10.481Z,102114.06
2024-05-09T00:51:32.582Z,102109.69
2024-05-09T00:51:56.754Z,102115.00
2024-05-09T00:52:21.307Z,102115.84
2024-05-09T00:52:44.954Z,102115.75
2024-05-09T00:53:08.630Z,102116.69
2024-05-09T00:53:30.968Z,102113.09
2024-05-09T00:53:53.030Z,102110.41
2024-05-09T00:54:15.945Z,102106.91
2024-05-09T00:54:40.612Z,102113.03
2024-05-09T00:55:02.659Z,102113.03
2024-05-09T00:55:24.730Z,102102.47
2024-05-09T00:55:47.203Z,102113.03
2024-05-09T00:56:11.688Z,102114.88
2024-05-09T00:56:37.677Z,102108.72
2024-05-09T00:56:59.860Z,102111.44
2024-05-09T00:57:21.804Z,102114.84
2024-05-09T00:57:44.764Z,102114.00
2024-05-09T00:58:07.806Z,102113.97
2024-05-09T00:58:32.982Z,102111.31
2024-05-09T00:58:55.525Z,102121.19
2024-05-09T00:59:20.104Z,102113.19
2024-05-09T00:59:41.910Z,102120.25
2024-05-09T01:00:07.725Z,102115.91
2024-05-09T01:00:38.856Z,102113.19
2024-05-09T01:01:03.452Z,102114.16
2024-05-09T01:01:26.087Z,102115.88
2024-05-09T01:01:48.425Z,102114.97
2024-05-09T01:02:13.505Z,102119.38
2024-05-09T01:02:35.743Z,102119.31
2024-05-09T01:02:57.933Z,102111.44
2024-05-09T01:03:20.370Z,102118.63
2024-05-09T01:03:42.566Z,102119.47
2024-05-09T01:04:07.605Z,102120.31
2024-05-09T01:04:29.512Z,102116.91
2024-05-09T01:04:53.357Z,102129.34
2024-05-09T01:05:15.406Z,102120.41
2024-05-09T01:05:38.854Z,102123.06
2024-05-09T01:06:03.403Z,102128.41
2024-05-09T01:06:25.349Z,102127.50
2024-05-09T01:06:47.957Z,102124.88
2024-05-09T01:07:11.399Z,102118.84
2024-05-09T01:07:33.225Z,102129.34
2024-05-09T01:07:55.058Z,102128.44
2024-05-09T01:08:20.366Z,102123.06
2024-05-09T01:08:42.493Z,102128.50
2024-05-09T01:09:04.560Z,102129.47
2024-05-09T01:09:26.467Z,102118.84
2024-05-09T01:09:48.202Z,102127.69
2024-05-09T01:10:17.424Z,102120.69
2024-05-09T01:10:47.906Z,102120.50
2024-05-09T01:11:10.528Z,102119.66
2024-05-09T01:11:36.953Z,102124.09
2024-05-09T01:12:01.615Z,102127.81
2024-05-09T01:12:24.787Z,102118.94
2024-05-09T01:12:46.670Z,102109.25
2024-05-09T01:13:08.493Z,102116.22
2024-05-09T01:13:30.255Z,102118.94
2024-05-09T01:13:52.037Z,102120.00
2024-05-09T01:14:16.493Z,102122.63
2024-05-09T01:14:41.016Z,102118.16
2024-05-09T01:15:02.807Z,102126.19
2024-05-09T01:15:24.571Z,102110.22
2024-05-09T01:15:50.003Z,102127.91
2024-05-09T01:16:14.730Z,102123.50
2024-05-09T01:16:36.705Z,102120.88
2024-05-09T01:16:58.548Z,102127.91
2024-05-09T01:17:20.556Z,102117.19
2024-05-09T01:17:42.685Z,102117.19
2024-05-09T01:18:07.880Z,102113.78
2024-05-09T01:18:32.882Z,102115.63
2024-05-09T01:18:55.552Z,102113.81
2024-05-09T01:19:23.003Z,102120.94
2024-05-09T01:19:45.484Z,102117.28
2024-05-09T01:20:16.213Z,102116.34
2024-05-09T01:20:44.865Z,102115.38
2024-05-09T01:21:09.477Z,102104.00
2024-05-09T01:21:33.287Z,102062.91
2024-05-09T01:21:57.871Z,102118.16
2024-05-09T01:22:20.033Z,102108.53
2024-05-09T01:22:43.555Z,102094.50
2024-05-09T01:23:09.899Z,102072.50
2024-05-09T01:23:32.516Z,102112.84
2024-05-09T01:23:57.323Z,102108.50
2024-05-09T01:24:40.474Z,102118.16
2024-05-09T01:25:02.294Z,102104.13
2024-05-09T01:25:24.777Z,102121.09
2024-05-09T01:25:47.163Z,102112.09
2024-05-09T01:26:11.733Z,102110.38
2024-05-09T01:26:33.620Z,102067.41
2024-05-09T01:26:55.478Z,102120.00
2024-05-09T01:27:17.608Z,102113.72
2024-05-09T01:27:39.531Z,102111.03
2024-05-09T01:28:01.514Z,102081.44
2024-05-09T01:28:25.996Z,102071.66
2024-05-09T01:28:47.918Z,102085.78
2024-05-09T01:29:09.837Z,102109.28
2024-05-09T01:29:31.768Z,102120.84
2024-05-09T01:29:53.735Z,102100.72
2024-05-09T01:30:24.318Z,102104.22
2024-05-09T01:30:51.076Z,102113.78
2024-05-09T01:31:15.845Z,102114.63
2024-05-09T01:31:37.750Z,102106.75
2024-05-09T01:32:04.545Z,102097.06
2024-05-09T01:32:26.642Z,102115.44
2024-05-09T01:32:48.601Z,102114.56
2024-05-09T01:33:12.098Z,102116.31
2024-05-09T01:33:34.894Z,102115.47
2024-05-09T01:33:57.278Z,102113.78
2024-05-09T01:34:22.163Z,102115.53
2024-05-09T01:34:44.176Z,102111.03
2024-05-09T01:35:06.761Z,102105.84
2024-05-09T01:35:28.845Z,102110.13
2024-05-09T01:35:50.693Z,102111.13
2024-05-09T01:36:15.192Z,102114.75
2024-05-09T01:36:37.014Z,102110.28
2024-05-09T01:36:58.847Z,102115.72
2024-05-09T01:37:20.676Z,102111.28
2024-05-09T01:37:42.576Z,102063.00
2024-05-09T01:38:07.431Z,102099.16
2024-05-09T01:39:07.614Z,102077.31
2024-05-09T01:39:32.490Z,102103.56
2024-05-09T01:39:54.446Z,102098.19
2024-05-09T01:40:21.996Z,102056.94
2024-05-09T01:40:47.108Z,102104.31
2024-05-09T01:41:11.681Z,102088.47
2024-05-09T01:41:33.564Z,102103.28
2024-05-09T01:41:55.841Z,102112.31
2024-05-09T01:42:17.680Z,102099.16
2024-05-09T01:42:39.569Z,102104.50
2024-05-09T01:43:03.988Z,102107.03
2024-05-09T01:43:26.934Z,102092.88
2024-05-09T01:43:48.807Z,102095.72
2024-05-09T01:44:10.731Z,102107.16
2024-05-09T01:44:35.200Z,102106.31
2024-05-09T01:44:57.138Z,102106.31
2024-05-09T01:45:19.365Z,102107.09
2024-05-09T01:45:41.490Z,102103.59
2024-05-09T01:46:03.602Z,102102.56
2024-05-09T01:46:28.055Z,102105.28
2024-05-09T01:46:50.107Z,102099.16
2024-05-09T01:47:12.039Z,102106.25
2024-05-09T01:47:34.037Z,102103.63
2024-05-09T01:47:58.955Z,102073.13
2024-05-09T01:48:21.387Z,102094.84
2024-05-09T01:48:43.538Z,102078.31
2024-05-09T01:49:05.593Z,102078.34
2024-05-09T01:49:27.605Z,102099.25
2024-05-09T01:49:52.408Z,102093.19
2024-05-09T01:50:41.470Z,102097.38
2024-05-09T01:51:05.287Z,102101.81
2024-05-09T01:51:30.097Z,102096.44
2024-05-09T01:51:51.984Z,102090.34
2024-05-09T01:52:13.946Z,102102.72
2024-05-09T01:52:38.778Z,102100.03
2024-05-09T01:53:00.989Z,102101.88
2024-05-09T01:53:25.653Z,102098.34
2024-05-09T01:53:50.858Z,102098.28
2024-05-09T01:54:12.775Z,102105.34
2024-05-09T01:54:34.696Z,102093.81
2024-05-09T01:54:56.648Z,102093.78
2024-05-09T01:55:18.562Z,102093.72
2024-05-09T01:55:43.424Z,102100.81
2024-05-09T01:56:06.064Z,102099.84
2024-05-09T01:56:28.113Z,102091.13
2024-05-09T01:56:50.062Z,102102.59
2024-05-09T01:57:11.930Z,102093.78
2024-05-09T01:57:36.536Z,102105.38
2024-05-09T01:57:59.227Z,102099.16
2024-05-09T01:58:21.620Z,102099.91
2024-05-09T01:58:43.559Z,102105.28
2024-05-09T01:59:06.823Z,102104.47
2024-05-09T01:59:31.831Z,102078.16
2024-05-09T01:59:53.706Z,102072.84
2024-05-09T02:00:22.245Z,102107.22
2024-05-09T02:00:51.721Z,102091.22
2024-05-09T02:01:16.763Z,102080.94
2024-05-09T02:01:56.036Z,102108.09
2024-05-09T02:02:19.660Z,102080.69
2024-05-09T02:02:44.512Z,102102.06
2024-05-09T02:03:08.628Z,102105.50
2024-05-09T02:03:33.895Z,102101.00
2024-05-09T02:03:56.080Z,102082.66
2024-05-09T02:04:18.327Z,102099.25
2024-05-09T02:04:42.050Z,102077.31
2024-05-09T02:05:04.648Z,102100.88
2024-05-09T02:05:27.082Z,102077.41
2024-05-09T02:05:52.640Z,102098.28
2024-05-09T02:06:14.733Z,102104.66
2024-05-09T02:06:39.860Z,102089.59
2024-05-09T02:07:01.721Z,102107.22
2024-05-09T02:07:23.926Z,102095.88
2024-05-09T02:07:45.889Z,102103.69
2024-05-09T02:08:16.730Z,102104.59
2024-05-09T02:08:41.620Z,102091.44
2024-05-09T02:09:03.525Z,102107.38
2024-05-09T02:09:25.788Z,102092.44
2024-05-09T02:09:47.812Z,102103.03
2024-05-09T02:10:20.125Z,102095.03
2024-05-09T02:10:46.519Z,102108.38
2024-05-09T02:11:11.157Z,102100.38
2024-05-09T02:11:33.673Z,102099.44
2024-05-09T02:11:59.369Z,102104.78
2024-05-09T02:12:21.333Z,102093.38
2024-05-09T02:12:43.214Z,102103.22
2024-05-09T02:13:07.637Z,102100.59
2024-05-09T02:13:29.524Z,102063.56
2024-05-09T02:13:53.998Z,102090.91
2024-05-09T02:14:18.386Z,102093.47
2024-05-09T02:14:40.542Z,102091.69
2024-05-09T02:15:02.446Z,102094.31
2024-05-09T02:15:24.776Z,102092.59
2024-05-09T02:15:52.160Z,102071.59
2024-05-09T02:16:14.796Z,102086.69
2024-05-09T02:16:36.658Z,102089.00
2024-05-09T02:16:58.566Z,102097.81
2024-05-09T02:17:20.642Z,102092.56
2024-05-09T02:17:45.306Z,102103.94
2024-05-09T02:18:08.035Z,102100.34
2024-05-09T02:18:30.615Z,102097.78
2024-05-09T02:18:52.649Z,102105.06
2024-05-09T02:19:15.019Z,102097.91
2024-05-09T02:19:37.342Z,102107.66
2024-05-09T02:20:01.893Z,102101.41
2024-05-09T02:20:33.402Z,102095.09
2024-05-09T02:20:58.398Z,102098.66
2024-05-09T02:21:20.248Z,102102.16
2024-05-09T02:21:43.202Z,102099.53
2024-05-09T02:22:08.116Z,102105.84
2024-05-09T02:22:29.966Z,102102.28
2024-05-09T02:22:54.333Z,102100.53
2024-05-09T02:23:16.326Z,102105.03
2024-05-09T02:23:38.394Z,102106.84
2024-05-09T02:24:06.046Z,102102.41
2024-05-09T02:24:27.865Z,102111.31
2024-05-09T02:24:49.742Z,102105.06
2024-05-09T02:25:11.615Z,102110.38
2024-05-09T02:25:33.945Z,102107.66
2024-05-09T02:25:58.752Z,102085.75
2024-05-09T02:26:20.852Z,102089.22
2024-05-09T02:26:42.730Z,102101.41
2024-05-09T02:27:05.564Z,102051.53
2024-05-09T02:27:27.460Z,102080.66
2024-05-09T02:27:49.478Z,102109.53
2024-05-09T02:28:14.362Z,102078.84
2024-05-09T02:28:36.214Z,102089.88
2024-05-09T02:28:58.187Z,102069.81
2024-05-09T02:29:20.110Z,102079.34
2024-05-09T02:29:44.725Z,102095.09
2024-05-09T02:30:18.286Z,102074.16
2024-05-09T02:30:47.490Z,102094.41
2024-05-09T02:31:12.041Z,102091.09
2024-05-09T02:31:34.027Z,102073.38
2024-05-09T02:31:56.360Z,102055.81
2024-05-09T02:32:18.795Z,102094.50
2024-05-09T02:32:44.712Z,102093.53
2024-05-09T02:33:07.117Z,102097.06
2024-05-09T02:33:29.381Z,102094.44
2024-05-09T02:33:52.496Z,102094.50
2024-05-09T02:34:14.675Z,102092.75
2024-05-09T02:34:39.266Z,102109.72
2024-05-09T02:35:02.242Z,102106.22
2024-05-09T02:35:24.578Z,102078.09
2024-05-09T02:35:46.563Z,102064.00
2024-05-09T02:36:09.244Z,102089.31
2024-05-09T02:36:31.183Z,102061.31
2024-05-09T02:36:56.032Z,102091.09
2024-05-09T02:37:20.639Z,102094.69
2024-05-09T02:37:42.639Z,102070.94
2024-05-09T02:38:05.075Z,102101.69
2024-05-09T02:38:27.138Z,102102.59
2024-05-09T02:38:51.565Z,102084.09
2024-05-09T02:39:16.012Z,102086.00
2024-05-09T02:39:37.896Z,102102.72
2024-05-09T02:39:59.743Z,102100.06
2024-05-09T02:40:28.939Z,102095.69
2024-05-09T02:40:57.918Z,102101.97
2024-05-09T02:41:19.826Z,102105.63
2024-05-09T02:41:44.366Z,102093.19
2024-05-09T02:42:06.243Z,102099.31
2024-05-09T02:42:28.117Z,102100.28
2024-05-09T02:42:50.321Z,102093.94
2024-05-09T02:43:13.102Z,102085.16
2024-05-09T02:43:35.468Z,102083.47
2024-05-09T02:43:57.395Z,102081.63
2024-05-09T02:44:19.422Z,102095.78
2024-05-09T02:44:42.783Z,102090.47
2024-05-09T02:45:05.889Z,102094.03
2024-05-09T02:45:27.758Z,102086.09
2024-05-09T02:45:49.739Z,102079.84
2024-05-09T02:46:14.227Z,102086.09
2024-05-09T02:46:36.056Z,102102.13
2024-05-09T02:46:57.945Z,102089.59
2024-05-09T02:47:20.037Z,102092.28
2024-05-09T02:47:42.509Z,102088.81
2024-05-09T02:48:05.556Z,102091.38
2024-05-09T02:48:27.877Z,102093.09
2024-05-09T02:48:50.237Z,102087.88
2024-05-09T02:49:12.586Z,102083.59
2024-05-09T02:49:38.326Z,102090.72
2024-05-09T02:50:00.270Z,102090.75
2024-05-09T02:50:29.918Z,102092.44
2024-05-09T02:51:01.320Z,102095.03
2024-05-09T02:51:23.525Z,102092.31
2024-05-09T02:51:45.667Z,102091.47
2024-05-09T02:52:07.534Z,102092.19
2024-05-09T02:52:29.697Z,102098.38
2024-05-09T02:52:54.573Z,102097.47
2024-05-09T02:53:16.657Z,102103.66
2024-05-09T02:53:38.584Z,102087.84
2024-05-09T02:54:00.525Z,102083.47
2024-05-09T02:54:25.039Z,102102.13
2024-05-09T02:54:46.918Z,102091.47
2024-05-09T02:55:08.771Z,102094.94
2024-05-09T02:55:30.666Z,102094.91
2024-05-09T02:55:52.983Z,102079.16
2024-05-09T02:56:15.388Z,102103.91
2024-05-09T02:56:39.966Z,102078.41
2024-05-09T02:57:01.864Z,102051.19
2024-05-09T02:57:23.765Z,102067.13
2024-05-09T02:57:45.668Z,102046.91
2024-05-09T02:58:08.111Z,102097.88
2024-05-09T02:58:32.653Z,102063.66
2024-05-09T02:58:54.645Z,102096.91
2024-05-09T02:59:16.886Z,102091.53
2024-05-09T02:59:41.426Z,102089.78
2024-05-09T03:00:05.925Z,102058.31
2024-05-09T03:00:36.754Z,102090.75
2024-05-09T03:01:02.255Z,102098.66
2024-05-09T03:01:24.200Z,102067.97
2024-05-09T03:01:46.605Z,102102.22
2024-05-09T03:02:08.785Z,102093.25
2024-05-09T03:02:31.935Z,102055.41
2024-05-09T03:02:56.637Z,102079.34
2024-05-09T03:03:18.962Z,102088.75
2024-05-09T03:03:43.458Z,102097.69
2024-05-09T03:04:05.641Z,102094.09
2024-05-09T03:04:27.862Z,102090.47
2024-05-09T03:04:49.849Z,102094.91
2024-05-09T03:05:12.018Z,102085.06
2024-05-09T03:05:34.378Z,102081.59
2024-05-09T03:05:56.351Z,102090.41
2024-05-09T03:06:18.259Z,102093.97
2024-05-09T03:06:40.593Z,102097.59
2024-05-09T03:07:05.014Z,102098.44
2024-05-09T03:07:26.844Z,102057.16
2024-05-09T03:07:48.753Z,102081.63
2024-05-09T03:08:10.872Z,102088.69
2024-05-09T03:08:32.975Z,102092.28
2024-05-09T03:08:55.050Z,102073.94
2024-05-09T03:09:17.234Z,102099.38
2024-05-09T03:09:46.085Z,102093.16
2024-05-09T03:10:18.039Z,102086.22
2024-05-09T03:10:44.273Z,102058.84
2024-05-09T03:11:08.859Z,102094.91
2024-05-09T03:11:31.004Z,102093.09
2024-05-09T03:11:53.181Z,102096.66
2024-05-09T03:12:15.536Z,102090.59
2024-05-09T03:12:39.198Z,102086.88
2024-05-09T03:13:05.902Z,102091.28
2024-05-09T03:13:27.858Z,102065.75
2024-05-09T03:13:51.307Z,102073.81
2024-05-09T03:14:16.214Z,102089.59
2024-05-09T03:14:38.109Z,102092.25
2024-05-09T03:15:00.146Z,102086.16
2024-05-09T03:15:24.650Z,102085.22
2024-05-09T03:15:46.542Z,102066.81
2024-05-09T03:16:08.468Z,102093.06
2024-05-09T03:16:30.366Z,102092.25
2024-05-09T03:16:52.203Z,102095.84
2024-05-09T03:17:14.104Z,102080.81
2024-05-09T03:17:36.134Z,102104.81
2024-05-09T03:17:58.323Z,102101.25
2024-05-09T03:18:20.362Z,102095.00
2024-05-09T03:18:44.965Z,102088.81
2024-05-09T03:19:06.845Z,102091.44
2024-05-09T03:19:28.953Z,102096.75
2024-05-09T03:19:51.069Z,102082.59
2024-05-09T03:20:20.498Z,102071.25
2024-05-09T03:20:46.022Z,102095.06
2024-05-09T03:21:08.200Z,102097.72
2024-05-09T03:21:30.117Z,102095.03
2024-05-09T03:21:51.980Z,102088.88
2024-05-09T03:22:15.226Z,102096.06
2024-05-09T03:22:39.650Z,102092.56
2024-05-09T03:23:01.631Z,102090.81
2024-05-09T03:23:23.561Z,102094.44
2024-05-09T03:23:45.642Z,102095.25
2024-05-09T03:24:08.019Z,102083.00
2024-05-09T03:24:29.929Z,102092.56
2024-05-09T03:24:54.437Z,102089.13
2024-05-09T03:25:16.428Z,102096.16
2024-05-09T03:25:38.571Z,102092.59
2024-05-09T03:26:00.630Z,102088.25
2024-05-09T03:26:22.602Z,102094.34
2024-05-09T03:26:44.774Z,102090.81
2024-05-09T03:27:09.203Z,102086.28
2024-05-09T03:27:31.035Z,102088.88
2024-05-09T03:27:53.493Z,102068.91
2024-05-09T03:28:15.303Z,102089.91
2024-05-09T03:28:37.267Z,102088.97
2024-05-09T03:28:59.447Z,102068.75
2024-05-09T03:29:21.387Z,102096.09
2024-05-09T03:29:43.404Z,102086.34
2024-05-09T03:30:07.565Z,102063.59
2024-05-09T03:30:39.498Z,102059.13
2024-05-09T03:31:07.584Z,102091.66
2024-05-09T03:31:29.519Z,102087.34
2024-05-09T03:31:51.479Z,102094.44
2024-05-09T03:32:13.629Z,102094.47
2024-05-09T03:32:35.697Z,102075.16
2024-05-09T03:32:58.023Z,102051.47
2024-05-09T03:33:20.865Z,102088.13
2024-05-09T03:33:43.266Z,102092.53
2024-05-09T03:34:05.633Z,102089.91
2024-05-09T03:34:27.800Z,102092.78
2024-05-09T03:34:52.603Z,102097.16
2024-05-09T03:35:14.681Z,102096.19
2024-05-09T03:35:36.655Z,102093.59
2024-05-09T03:35:58.514Z,102092.78
2024-05-09T03:36:20.492Z,102090.97
2024-05-09T03:36:43.017Z,102094.50
2024-05-09T03:37:07.679Z,102044.50
2024-05-09T03:37:29.806Z,102098.13
2024-05-09T03:37:51.668Z,102084.06
2024-05-09T03:38:14.142Z,102089.22
2024-05-09T03:38:39.808Z,102096.28
2024-05-09T03:39:02.025Z,102089.13
2024-05-09T03:39:26.593Z,102064.63
2024-05-09T03:39:48.502Z,102093.50
2024-05-09T03:40:20.480Z,102066.34
2024-05-09T03:40:45.810Z,102099.69
2024-05-09T03:41:08.215Z,102095.22
2024-05-09T03:41:32.891Z,102088.09
2024-05-09T03:41:54.867Z,102097.03
2024-05-09T03:42:16.803Z,102097.88
2024-05-09T03:42:41.666Z,102084.53
2024-05-09T03:43:03.753Z,102089.88
2024-05-09T03:43:28.260Z,102081.97
2024-05-09T03:43:50.204Z,102097.00
2024-05-09T03:44:12.265Z,102081.88
2024-05-09T03:44:34.696Z,102095.31
2024-05-09T03:44:58.171Z,102091.84
2024-05-09T03:45:20.096Z,102088.63
2024-05-09T03:45:42.361Z,102085.75
2024-05-09T03:46:07.286Z,102093.75
2024-05-09T03:46:29.203Z,102098.16
2024-05-09T03:46:51.475Z,102098.13
2024-05-09T03:47:13.460Z,102087.50
2024-05-09T03:47:35.665Z,102097.25
2024-05-09T03:47:57.993Z,102089.44
2024-05-09T03:48:20.272Z,102089.38
2024-05-09T03:48:42.357Z,102077.06
2024-05-09T03:49:04.468Z,102079.75
2024-05-09T03:49:29.329Z,102093.75
2024-05-09T03:49:59.603Z,102069.16
2024-05-09T03:50:29.539Z,102085.72
2024-05-09T03:50:55.491Z,102094.66
2024-05-09T03:51:17.331Z,102076.22
2024-05-09T03:51:39.102Z,102100.06
2024-05-09T03:52:05.076Z,102088.38
2024-05-09T03:52:26.864Z,102056.88
2024-05-09T03:52:51.389Z,102093.72
2024-05-09T03:53:14.294Z,102083.03
2024-05-09T03:53:40.401Z,102053.25
2024-05-09T03:54:04.247Z,102092.03
2024-05-09T03:54:27.460Z,102095.53
2024-05-09T03:54:49.252Z,102098.19
2024-05-09T03:55:14.284Z,102089.25
2024-05-09T03:55:37.239Z,102084.84
2024-05-09T03:56:03.738Z,102093.72
2024-05-09T03:56:25.723Z,102085.75
2024-05-09T03:56:47.602Z,102090.19
2024-05-09T03:57:10.618Z,102094.63
2024-05-09T03:57:34.620Z,102089.38
2024-05-09T03:57:59.579Z,102094.66
2024-05-09T03:58:21.564Z,102090.28
2024-05-09T03:58:43.357Z,102090.28
2024-05-09T03:59:05.487Z,102089.38
2024-05-09T03:59:27.671Z,102092.84
2024-05-09T03:59:49.533Z,102089.41
2024-05-09T04:00:18.307Z,102093.88
2024-05-09T04:00:48.023Z,102088.53
2024-05-09T04:01:09.949Z,102090.41
2024-05-09T04:01:35.675Z,102091.19
2024-05-09T04:01:58.103Z,102096.63
2024-05-09T04:02:20.580Z,102080.75
2024-05-09T04:02:43.305Z,102091.22
2024-05-09T04:03:07.793Z,102094.78
2024-05-09T04:03:32.033Z,102089.44
2024-05-09T04:03:56.174Z,102086.09
2024-05-09T04:04:20.682Z,102090.59
2024-05-09T04:04:44.945Z,102092.41
2024-05-09T04:05:07.014Z,102092.50
2024-05-09T04:05:29.976Z,102087.16
2024-05-09T04:05:52.244Z,102093.38
2024-05-09T04:06:20.274Z,102089.84
2024-05-09T04:06:43.171Z,102097.97
2024-05-09T04:07:12.834Z,102095.19
2024-05-09T04:07:37.849Z,102089.91
2024-05-09T04:08:00.451Z,102096.09
2024-05-09T04:08:23.653Z,102083.72
2024-05-09T04:08:46.583Z,102097.00
2024-05-09T04:09:08.589Z,102061.88
2024-05-09T04:09:30.506Z,102073.22
2024-05-09T04:09:52.322Z,102088.97
2024-05-09T04:10:24.094Z,102095.13
2024-05-09T04:10:52.769Z,102093.41
2024-05-09T04:11:17.369Z,102101.44
2024-05-09T04:11:39.458Z,102101.47
2024-05-09T04:12:01.472Z,102097.97
2024-05-09T04:12:23.628Z,102095.31
2024-05-09T04:12:45.492Z,102090.91
2024-05-09T04:13:07.446Z,102094.53
2024-05-09T04:13:30.542Z,102094.56
2024-05-09T04:13:52.390Z,102093.69
2024-05-09T04:14:14.451Z,102101.59
2024-05-09T04:14:36.400Z,102095.31
2024-05-09T04:15:01.194Z,102070.78
2024-05-09T04:15:24.095Z,102092.53
2024-05-09T04:15:45.947Z,102103.22
2024-05-09T04:16:10.113Z,102085.53
2024-05-09T04:16:31.862Z,102092.50
2024-05-09T04:16:53.668Z,102096.13
2024-05-09T04:17:15.548Z,102097.88
2024-05-09T04:17:37.532Z,102101.44
2024-05-09T04:18:00.205Z,102102.34
2024-05-09T04:18:22.503Z,102093.38
2024-05-09T04:18:47.043Z,102098.72
2024-05-09T04:19:09.068Z,102095.13
2024-05-09T04:19:31.166Z,102095.03
2024-05-09T04:19:53.052Z,102096.81
2024-05-09T04:20:24.589Z,102099.47
2024-05-09T04:20:56.769Z,102077.47
2024-05-09T04:21:18.568Z,102097.63
2024-05-09T04:21:40.344Z,102100.25
2024-05-09T04:22:04.699Z,102094.06
2024-05-09T04:22:26.489Z,102099.53
2024-05-09T04:22:48.351Z,102100.53
2024-05-09T04:23:12.254Z,102100.44
2024-05-09T04:23:34.425Z,102096.13
2024-05-09T04:23:56.264Z,102095.28
2024-05-09T04:24:18.022Z,102098.78
2024-05-09T04:24:39.779Z,102096.19
2024-05-09T04:25:01.504Z,102098.88
2024-05-09T04:25:25.874Z,102102.47
2024-05-09T04:25:47.728Z,102102.34
2024-05-09T04:26:09.629Z,102099.75
2024-05-09T04:26:34.017Z,102082.94
2024-05-09T04:26:55.804Z,102103.16
2024-05-09T04:27:17.546Z,102095.16
2024-05-09T04:27:39.294Z,102097.84
2024-05-09T04:28:01.117Z,102093.38
2024-05-09T04:28:23.819Z,102093.41
2024-05-09T04:28:45.723Z,102096.97
2024-05-09T04:29:08.008Z,102096.88
2024-05-09T04:29:32.571Z,102104.03
2024-05-09T04:29:54.340Z,102102.19